This is the latest recevied weather packets stored in our database for station/object SQ2ODE-13. If no packets are shown the sender has not sent any weather packets the latest 10 day(s).
| Time | Temp. | Humidity | Pressure | Rain* | Wind** | Luminosity | Snow |
|---|---|---|---|---|---|---|---|
| 1777479940 | 11.11° C | 27% | 1025.4 hPa | 0 mm | - | - | - |
| 1777478123 | 11.67° C | 21% | 1025.3 hPa | 0 mm | - | - | - |
| 1777477538 | 11.11° C | 24% | 1025.4 hPa | 0 mm | - | - | - |
| 1777472130 | 11.67° C | 20% | 1025.5 hPa | 0 mm | - | - | - |
| 1777469769 | 11.67° C | 20% | 1025.6 hPa | 0 mm | - | - | - |
| 1777467974 | 10° C | 24% | 1025.8 hPa | 0 mm | - | - | - |
| 1777467348 | 10.56° C | 23% | 1025.9 hPa | 0 mm | - | - | - |
| 1777464927 | 10.56° C | 23% | 1025.8 hPa | 0 mm | - | - | - |
| 1777461357 | 10° C | 30% | 1026.1 hPa | 0 mm | - | - | - |
| 1777460751 | 9.44° C | 31% | 1026.1 hPa | 0 mm | - | - | - |
| 1777456575 | 8.89° C | 34% | 1026.1 hPa | 0 mm | - | - | - |
| 1777453549 | 7.78° C | 36% | 1026 hPa | 0 mm | - | - | - |
| 1777452340 | 8.33° C | 32% | 1025.8 hPa | 0 mm | - | - | - |
| 1777449921 | 7.78° C | 34% | 1025.6 hPa | 0 mm | - | - | - |
| 1777445144 | 6.67° C | 35% | 1025.8 hPa | 0 mm | - | - | - |
| 1777444558 | 6.11° C | 39% | 1025.8 hPa | 0 mm | - | - | - |
| 1777442117 | 3.89° C | 58% | 1025.7 hPa | 0 mm | - | - | - |
| 1777440363 | 2.78° C | 60% | 1025.4 hPa | 0 mm | - | - | - |
| 1777439154 | 2.22° C | 63% | 1025.3 hPa | 0 mm | - | - | - |
| 1777433769 | -1.11° C | 81% | 1024.7 hPa | 0 mm | - | - | - |
| 1777423549 | 0° C | 79% | 1024.4 hPa | 0 mm | - | - | - |
| 1777422359 | 0.56° C | 77% | 1024.5 hPa | 0 mm | - | - | - |
| 1777421128 | 0.56° C | 73% | 1024.4 hPa | 0 mm | - | - | - |
| 1777416952 | 1.11° C | 68% | 1024.2 hPa | 0 mm | - | - | - |
| 1777412721 | 1.11° C | 59% | 1023.8 hPa | 0 mm | - | - | - |
* Rain latest hour (hover to see other rain measurements)
** Current wind speed in m/s (hover to see current wind gust speed)